Time;durP1;ratioP1;P1;durP2;ratioP2;P2;SDS_P1;SDS_P2;PMS_P1;PMS_P2;Temp;Humidity;BMP_temperature;BMP_pressure;BME280_temperature;BME280_humidity;BME280_pressure;Samples;Min_cycle;Max_cycle;Signal;HPM_P1;HPM_P2
2021/10/23 00:00:27;;;;;;;10.18;3.13;;;;;;;2.12;100.00;96563.63;1030590;28;20026;-70
2021/10/23 00:00:58;;;;;;;6.65;2.55;;;;;;;2.02;100.00;96552.78;1030383;28;20026;-69
2021/10/23 00:01:30;;;;;;;7.68;2.70;;;;;;;2.01;100.00;96550.38;1026662;28;20053;-69
2021/10/23 00:02:00;;;;;;;7.02;2.64;;;;;;;2.05;100.00;96552.44;1018709;29;20091;-70
2021/10/23 00:02:31;;;;;;;7.13;2.60;;;;;;;2.00;100.00;96554.75;1022888;28;20034;-70
2021/10/23 00:03:04;;;;;;;4.85;2.00;;;;;;;1.95;100.00;96545.97;1022921;28;20114;-70
2021/10/23 00:03:34;;;;;;;7.08;2.28;;;;;;;2.04;100.00;96555.97;1024087;28;20042;-68
2021/10/23 00:04:05;;;;;;;7.10;2.83;;;;;;;1.99;100.00;96552.38;1027341;28;20041;-70
2021/10/23 00:04:35;;;;;;;10.02;3.13;;;;;;;2.05;100.00;96557.59;1027913;28;20673;-71
2021/10/23 00:05:06;;;;;;;6.03;2.33;;;;;;;2.07;100.00;96560.78;1031002;28;20069;-70
2021/10/23 00:05:36;;;;;;;14.95;3.05;;;;;;;2.08;100.00;96566.78;1031330;28;20030;-69
2021/10/23 00:06:07;;;;;;;14.88;3.25;;;;;;;2.07;100.00;96555.59;1027202;28;20046;-70
2021/10/23 00:06:37;;;;;;;9.70;2.90;;;;;;;2.02;100.00;96552.78;1031417;28;20650;-69
2021/10/23 00:07:08;;;;;;;8.55;2.30;;;;;;;2.03;100.00;96554.38;1028104;28;20521;-70
2021/10/23 00:07:38;;;;;;;7.78;2.33;;;;;;;2.12;100.00;96560.25;1022998;28;20028;-68
2021/10/23 00:08:09;;;;;;;10.75;3.05;;;;;;;2.07;100.00;96555.59;1031152;28;20042;-69
2021/10/23 00:08:39;;;;;;;8.68;3.03;;;;;;;2.08;100.00;96561.59;1027054;28;20500;-69
2021/10/23 00:09:10;;;;;;;8.18;2.60;;;;;;;2.09;100.00;96564.00;1031152;28;20026;-70
2021/10/23 00:09:40;;;;;;;8.68;2.60;;;;;;;2.09;100.00;96564.00;1035384;28;20029;-69
2021/10/23 00:10:10;;;;;;;4.57;2.30;;;;;;;2.11;100.00;96551.69;1035331;28;20022;-69
2021/10/23 00:10:41;;;;;;;6.85;2.92;;;;;;;2.18;100.00;96567.25;1027236;28;20062;-70
2021/10/23 00:11:11;;;;;;;6.90;2.45;;;;;;;2.19;100.00;96568.06;1022961;28;20031;-70
2021/10/23 00:11:42;;;;;;;8.02;2.58;;;;;;;2.15;100.00;96564.22;1023011;29;20078;-69
2021/10/23 00:12:12;;;;;;;8.63;2.65;;;;;;;2.16;100.00;96568.44;1023727;28;20539;-68
2021/10/23 00:12:43;;;;;;;7.07;2.63;;;;;;;2.11;100.00;96563.78;1031021;28;20405;-69
2021/10/23 00:13:13;;;;;;;7.03;2.50;;;;;;;2.12;100.00;96573.19;1023245;28;20389;-70
2021/10/23 00:13:44;;;;;;;5.55;2.35;;;;;;;2.13;100.00;96574.78;1023361;28;20023;-70
2021/10/23 00:14:14;;;;;;;7.10;2.38;;;;;;;2.14;100.00;96571.19;1019280;29;20070;-70
2021/10/23 00:14:45;;;;;;;5.43;2.63;;;;;;;2.09;100.00;96570.97;1019566;28;20079;-70
2021/10/23 00:15:15;;;;;;;11.32;3.38;;;;;;;2.07;100.00;96565.97;1022971;29;20031;-70
2021/10/23 00:15:45;;;;;;;9.98;2.88;;;;;;;2.06;100.00;96568.75;1022948;28;20095;-70
2021/10/23 00:16:16;;;;;;;6.90;2.70;;;;;;;2.03;100.00;96569.13;1027369;28;20026;-70
2021/10/23 00:16:46;;;;;;;9.10;2.85;;;;;;;2.01;100.00;96566.75;1027235;28;20082;-70
2021/10/23 00:17:17;;;;;;;6.95;2.85;;;;;;;1.93;100.00;96561.69;1030923;28;20026;-69
2021/10/23 00:17:47;;;;;;;9.55;2.72;;;;;;;1.98;100.00;96569.69;1022645;28;20039;-70
2021/10/23 00:18:18;;;;;;;5.60;2.50;;;;;;;2.00;100.00;96574.66;1023111;28;20023;-69
2021/10/23 00:18:48;;;;;;;8.63;2.90;;;;;;;2.01;100.00;96571.91;1027453;28;20047;-69
2021/10/23 00:19:18;;;;;;;10.85;3.03;;;;;;;2.02;100.00;96573.50;1027302;28;20026;-69
2021/10/23 00:19:49;;;;;;;7.93;2.75;;;;;;;2.03;100.00;96572.50;1039330;28;20498;-70
2021/10/23 00:20:20;;;;;;;8.43;2.80;;;;;;;1.93;100.00;96561.69;1035448;28;20526;-70
2021/10/23 00:20:50;;;;;;;9.15;2.58;;;;;;;2.01;100.00;96571.91;1031131;28;20030;-69
2021/10/23 00:21:20;;;;;;;8.30;2.80;;;;;;;2.00;100.00;96572.88;1030935;28;20034;-69
2021/10/23 00:21:51;;;;;;;5.15;2.95;;;;;;;1.94;100.00;96555.50;1027210;28;20041;-69
2021/10/23 00:22:22;;;;;;;7.20;2.97;;;;;;;2.00;100.00;96575.47;1027036;28;20089;-70
2021/10/23 00:22:52;;;;;;;7.18;2.65;;;;;;;1.99;100.00;96568.69;1032671;28;20038;-68
2021/10/23 00:23:23;;;;;;;6.95;2.92;;;;;;;1.95;100.00;96571.88;1031170;28;20455;-70
2021/10/23 00:23:53;;;;;;;7.53;3.00;;;;;;;1.92;100.00;96569.66;1031071;28;20035;-68
2021/10/23 00:24:23;;;;;;;8.88;3.22;;;;;;;1.91;100.00;96576.59;1031420;28;20026;-70
2021/10/23 00:24:57;;;;;;;11.25;3.47;;;;;;;1.83;100.00;96569.75;1035255;28;20109;-69
2021/10/23 00:25:27;;;;;;;5.20;2.76;;;;;;;1.91;100.00;96573.19;1031143;28;20445;-69
2021/10/23 00:25:58;;;;;;;8.63;3.03;;;;;;;1.88;100.00;96572.59;1027182;28;20026;-68
2021/10/23 00:26:28;;;;;;;16.80;3.55;;;;;;;1.81;100.00;96571.75;1027486;28;20031;-69
2021/10/23 00:26:59;;;;;;;7.88;2.67;;;;;;;1.84;100.00;96580.91;1027220;28;20174;-70
2021/10/23 00:27:29;;;;;;;6.80;3.33;;;;;;;1.81;100.00;96574.34;1031333;28;20030;-69
2021/10/23 00:28:00;;;;;;;11.98;3.63;;;;;;;1.78;100.00;96571.31;1026073;28;20034;-69
2021/10/23 00:28:30;;;;;;;8.82;2.72;;;;;;;1.81;100.00;96581.28;1031245;28;20022;-69
2021/10/23 00:29:01;;;;;;;9.10;3.60;;;;;;;1.80;100.00;96579.69;1022894;29;20069;-69
2021/10/23 00:29:31;;;;;;;10.00;3.35;;;;;;;1.80;100.00;96577.91;1019119;29;20343;-68
2021/10/23 00:30:03;;;;;;;7.68;3.20;;;;;;;1.76;100.00;96568.13;1018937;29;20081;-69
2021/10/23 00:30:34;;;;;;;7.22;3.44;;;;;;;1.73;100.00;96564.09;1027360;28;20093;-69
2021/10/23 00:31:04;;;;;;;7.25;3.38;;;;;;;1.83;100.00;96580.13;1027150;28;20034;-70
2021/10/23 00:31:35;;;;;;;8.73;3.20;;;;;;;1.82;100.00;96575.94;1031245;28;20073;-69
2021/10/23 00:32:05;;;;;;;6.82;3.35;;;;;;;1.74;100.00;96570.06;1031349;28;20033;-69
2021/10/23 00:32:37;;;;;;;5.63;3.13;;;;;;;1.67;100.00;96553.69;1031524;28;20082;-70
2021/10/23 00:33:08;;;;;;;7.58;3.06;;;;;;;1.76;100.00;96573.28;1031018;28;20030;-70
2021/10/23 00:33:39;;;;;;;6.90;3.35;;;;;;;1.77;100.00;96580.06;1027039;28;20571;-69
2021/10/23 00:34:10;;;;;;;6.86;2.88;;;;;;;1.80;100.00;96575.31;1023163;28;20039;-69
2021/10/23 00:34:40;;;;;;;7.93;3.33;;;;;;;1.78;100.00;96576.50;1027061;28;20515;-69
2021/10/23 00:35:11;;;;;;;8.90;3.58;;;;;;;1.78;100.00;96584.25;1023519;28;20032;-70
2021/10/23 00:35:41;;;;;;;7.53;2.88;;;;;;;1.72;100.00;96572.06;1019123;28;20024;-70
2021/10/23 00:36:11;;;;;;;6.00;3.00;;;;;;;1.73;100.00;96571.88;1023014;28;20023;-69
2021/10/23 00:36:42;;;;;;;9.93;3.03;;;;;;;1.75;100.00;96576.88;1027355;28;20018;-68
2021/10/23 00:37:12;;;;;;;6.22;2.90;;;;;;;1.71;100.00;96575.63;1029379;28;20110;-69
2021/10/23 00:37:43;;;;;;;8.57;3.40;;;;;;;1.70;100.00;96580.00;1030607;28;20030;-69
2021/10/23 00:38:14;;;;;;;10.25;3.00;;;;;;;1.70;100.00;96582.59;1035159;28;20233;-70
2021/10/23 00:38:44;;;;;;;9.63;2.88;;;;;;;1.71;100.00;96581.63;1038705;28;20024;-69
2021/10/23 00:39:14;;;;;;;8.48;3.30;;;;;;;1.73;100.00;96584.81;1035081;28;20538;-69
2021/10/23 00:39:45;;;;;;;7.72;3.58;;;;;;;1.74;100.00;96578.63;1035323;28;20570;-69
2021/10/23 00:40:15;;;;;;;6.95;2.90;;;;;;;1.69;100.00;96573.22;1035124;28;20056;-70
2021/10/23 00:40:46;;;;;;;5.05;2.83;;;;;;;1.74;100.00;96580.41;1039486;28;20407;-69
2021/10/23 00:41:16;;;;;;;8.55;2.55;;;;;;;1.76;100.00;96586.22;1037944;28;20507;-69
2021/10/23 00:41:47;;;;;;;8.32;2.83;;;;;;;1.76;100.00;96593.97;1031018;28;20038;-70
2021/10/23 00:42:17;;;;;;;11.15;2.83;;;;;;;1.74;100.00;96580.41;1031409;28;20026;-69
2021/10/23 00:42:48;;;;;;;8.38;3.42;;;;;;;1.68;100.00;96570.81;1031266;28;20042;-69
2021/10/23 00:43:19;;;;;;;5.68;2.83;;;;;;;1.73;100.00;96582.22;1030009;28;20077;-68
2021/10/23 00:43:49;;;;;;;9.62;3.16;;;;;;;1.77;100.00;96585.22;1034890;28;20030;-70
2021/10/23 00:44:30;;;;;;;8.73;3.33;;;;;;;1.73;100.00;96578.84;1031153;28;20026;-68
2021/10/23 00:45:00;;;;;;;6.55;3.30;;;;;;;1.48;100.00;96543.00;1035510;28;20113;-70
2021/10/23 00:45:30;;;;;;;8.50;2.92;;;;;;;1.74;100.00;96580.41;1031831;28;20041;-69
2021/10/23 00:46:01;;;;;;;9.07;3.38;;;;;;;1.67;100.00;96570.00;1031983;28;20392;-69
2021/10/23 00:46:31;;;;;;;8.27;3.00;;;;;;;1.70;100.00;96574.03;1035325;28;20029;-70
2021/10/23 00:47:03;;;;;;;7.55;2.80;;;;;;;1.69;100.00;96582.78;1031239;28;20080;-69
2021/10/23 00:47:34;;;;;;;7.12;3.00;;;;;;;1.70;100.00;96580.00;1031506;28;20500;-69
2021/10/23 00:48:05;;;;;;;9.68;3.30;;;;;;;1.75;100.00;96582.03;1030487;28;20031;-69
2021/10/23 00:48:35;;;;;;;7.75;2.80;;;;;;;1.78;100.00;96584.25;1031147;28;20033;-69
2021/10/23 00:49:06;;;;;;;8.38;3.35;;;;;;;1.78;100.00;96586.84;1023819;28;20035;-69
2021/10/23 00:49:37;;;;;;;7.40;2.95;;;;;;;1.77;100.00;96580.84;1027317;28;20038;-70
2021/10/23 00:50:08;;;;;;;6.16;3.08;;;;;;;1.78;100.00;96582.47;1027181;28;20019;-69
2021/10/23 00:50:38;;;;;;;8.27;2.50;;;;;;;1.80;100.00;96588.25;1033432;28;20524;-69
2021/10/23 00:51:10;;;;;;;8.77;3.00;;;;;;;1.75;100.00;96572.50;1031097;28;20050;-70
2021/10/23 00:51:40;;;;;;;11.96;3.90;;;;;;;1.87;100.00;96576.16;1029458;28;20030;-68
2021/10/23 00:52:11;;;;;;;9.45;3.05;;;;;;;1.92;100.00;96591.13;1030671;28;20022;-69
2021/10/23 00:52:41;;;;;;;6.38;2.58;;;;;;;1.87;100.00;96576.16;1025704;28;20058;-69
2021/10/23 00:53:13;;;;;;;8.85;2.85;;;;;;;1.89;100.00;96576.00;1030251;28;20023;-70
2021/10/23 00:53:44;;;;;;;6.38;2.66;;;;;;;1.98;100.00;96587.81;1022144;29;20020;-70
2021/10/23 00:54:14;;;;;;;5.85;2.67;;;;;;;1.97;100.00;96582.81;1020594;29;20068;-70
2021/10/23 00:54:45;;;;;;;7.85;3.05;;;;;;;2.01;100.00;96590.03;1031104;28;20042;-70
2021/10/23 00:55:15;;;;;;;8.75;3.05;;;;;;;2.00;100.00;96579.84;1025992;28;20081;-69
2021/10/23 00:55:46;;;;;;;5.30;2.38;;;;;;;2.03;100.00;96579.47;1025719;28;20031;-69
2021/10/23 00:56:17;;;;;;;5.68;2.50;;;;;;;2.09;100.00;96586.50;1030690;28;20030;-69
2021/10/23 00:56:47;;;;;;;6.97;3.25;;;;;;;2.11;100.00;96581.91;1030986;28;20023;-69
2021/10/23 00:57:18;;;;;;;8.02;3.17;;;;;;;2.10;100.00;96578.53;1025585;28;20011;-69
2021/10/23 00:57:48;;;;;;;4.22;1.92;;;;;;;2.16;100.00;96578.78;1022755;28;20123;-69
2021/10/23 00:58:19;;;;;;;7.70;2.35;;;;;;;2.18;100.00;96577.59;1026921;28;20062;-69
2021/10/23 00:58:50;;;;;;;7.78;2.97;;;;;;;2.15;100.00;96571.97;1023666;28;20039;-70
2021/10/23 00:59:20;;;;;;;3.63;2.50;;;;;;;2.16;100.00;96569.22;1023193;28;20039;-70
2021/10/23 00:59:51;;;;;;;7.70;3.05;;;;;;;2.27;100.00;96591.19;1023386;29;20038;-69
2021/10/23 01:00:21;;;;;;;8.98;2.45;;;;;;;2.21;100.00;96572.03;1019041;29;20039;-69
2021/10/23 01:00:52;;;;;;;6.70;3.05;;;;;;;2.36;100.00;96579.72;1019529;29;20044;-69
2021/10/23 01:01:22;;;;;;;6.90;2.85;;;;;;;2.40;100.00;96591.28;1023630;28;20031;-70
2021/10/23 01:01:53;;;;;;;6.35;2.67;;;;;;;2.33;100.00;96569.72;1027277;28;20037;-70
2021/10/23 01:02:23;;;;;;;6.53;2.55;;;;;;;2.39;100.00;96578.53;1027300;28;20038;-70
2021/10/23 01:02:54;;;;;;;4.88;2.33;;;;;;;2.47;100.00;96581.75;1023538;29;20034;-70
2021/10/23 01:03:24;;;;;;;5.88;2.70;;;;;;;2.52;100.00;96578.63;1023027;29;20476;-70
2021/10/23 01:03:55;;;;;;;6.38;2.80;;;;;;;2.57;100.00;96581.41;1027633;28;20046;-69
2021/10/23 01:04:25;;;;;;;10.27;2.67;;;;;;;2.53;100.00;96581.00;1027291;28;20150;-70
2021/10/23 01:04:56;;;;;;;6.95;2.50;;;;;;;2.59;100.00;96580.25;1027222;28;20070;-70
2021/10/23 01:05:26;;;;;;;4.50;2.20;;;;;;;2.59;100.00;96576.88;1023361;28;20035;-69
2021/10/23 01:05:56;;;;;;;6.97;2.10;;;;;;;2.60;100.00;96579.25;1023253;29;20055;-69
2021/10/23 01:06:27;;;;;;;6.97;2.17;;;;;;;2.60;100.00;96571.47;1023223;28;20035;-70
2021/10/23 01:06:57;;;;;;;7.47;2.50;;;;;;;2.64;100.00;96571.88;1023542;28;20105;-69
2021/10/23 01:07:28;;;;;;;7.70;2.50;;;;;;;2.60;100.00;96565.50;1023030;28;20027;-70
2021/10/23 01:07:58;;;;;;;5.72;1.90;;;;;;;2.68;100.00;96577.50;1022611;28;20023;-69
2021/10/23 01:08:29;;;;;;;4.53;2.28;;;;;;;2.68;100.00;96572.31;1023296;29;20053;-69
2021/10/23 01:08:59;;;;;;;6.95;2.22;;;;;;;2.63;100.00;96565.13;1023274;28;20023;-70
2021/10/23 01:09:31;;;;;;;6.88;2.33;;;;;;;2.67;100.00;96570.72;1023261;29;20054;-69
2021/10/23 01:10:06;;;;;;;5.70;2.60;;;;;;;2.65;100.00;96562.31;1023081;29;20023;-69
2021/10/23 01:10:39;;;;;;;7.46;3.06;;;;;;;2.66;100.00;96563.94;1023097;29;20134;-69
2021/10/23 01:11:10;;;;;;;4.92;2.16;;;;;;;2.72;100.00;96573.53;1019516;29;20533;-70
2021/10/23 01:11:41;;;;;;;5.13;2.50;;;;;;;2.72;100.00;96568.38;1020929;28;20039;-71
2021/10/23 01:12:12;;;;;;;6.95;2.15;;;;;;;2.73;100.00;96569.94;1024545;28;20039;-69
2021/10/23 01:12:43;;;;;;;5.56;2.42;;;;;;;2.67;100.00;96553.38;1027965;28;20349;-70
2021/10/23 01:13:14;;;;;;;8.52;2.40;;;;;;;2.73;100.00;96570.75;1031144;28;20123;-69
2021/10/23 01:13:44;;;;;;;9.15;2.97;;;;;;;2.74;100.00;96568.94;1031151;28;20081;-69
2021/10/23 01:14:19;;;;;;;5.18;2.50;;;;;;;2.71;100.00;96556.38;1031070;28;20038;-69
2021/10/23 01:14:49;;;;;;;5.34;2.44;;;;;;;2.77;100.00;96565.97;1027549;28;20484;-69
2021/10/23 01:15:25;;;;;;;4.15;2.60;;;;;;;2.68;100.00;96556.75;1031143;28;20085;-68
2021/10/23 01:15:55;;;;;;;7.46;2.54;;;;;;;2.76;100.00;96569.56;1024358;28;20513;-70
2021/10/23 01:16:26;;;;;;;9.77;2.33;;;;;;;2.77;100.00;96565.97;1028901;28;20166;-69
2021/10/23 01:16:56;;;;;;;3.92;2.25;;;;;;;2.70;100.00;96554.78;1035130;28;20515;-70
2021/10/23 01:17:27;;;;;;;8.10;2.50;;;;;;;2.76;100.00;96564.38;1031391;28;20073;-69
2021/10/23 01:17:58;;;;;;;7.45;2.30;;;;;;;2.73;100.00;96568.16;1030596;28;20103;-70
2021/10/23 01:18:28;;;;;;;5.68;2.20;;;;;;;2.75;100.00;96558.41;1027224;28;20082;-71
2021/10/23 01:18:59;;;;;;;7.25;2.42;;;;;;;2.76;100.00;96564.38;1031271;28;20097;-70
2021/10/23 01:19:30;;;;;;;8.18;2.75;;;;;;;2.73;100.00;96565.56;1031116;28;20026;-71
2021/10/23 01:20:00;;;;;;;7.78;3.08;;;;;;;2.72;100.00;96565.78;1027056;28;20038;-69
2021/10/23 01:20:31;;;;;;;6.78;2.47;;;;;;;2.73;100.00;96569.94;1031349;28;20081;-70
2021/10/23 01:21:02;;;;;;;4.76;2.50;;;;;;;2.74;100.00;96566.34;1027402;28;20031;-70
2021/10/23 01:21:32;;;;;;;8.55;2.80;;;;;;;2.73;100.00;96570.75;1031420;28;20030;-69
2021/10/23 01:22:03;;;;;;;5.68;2.53;;;;;;;2.67;100.00;96560.34;1035228;28;20112;-69
2021/10/23 01:22:33;;;;;;;8.60;2.50;;;;;;;2.72;100.00;96568.38;1027139;28;20432;-69
2021/10/23 01:23:04;;;;;;;5.38;2.40;;;;;;;2.71;100.00;96564.16;1027419;28;20034;-70
2021/10/23 01:23:34;;;;;;;7.80;2.78;;;;;;;2.73;100.00;96569.94;1027127;28;20030;-70
2021/10/23 01:24:05;;;;;;;7.53;2.60;;;;;;;2.72;100.00;96568.38;1022952;29;20059;-70
2021/10/23 01:24:36;;;;;;;8.72;2.16;;;;;;;2.65;100.00;96555.38;1023314;29;20027;-67
2021/10/23 01:25:07;;;;;;;7.88;2.50;;;;;;;2.65;100.00;96563.16;1019723;28;20056;-69
2021/10/23 01:25:37;;;;;;;5.55;2.22;;;;;;;2.73;100.00;96570.75;1027348;28;20026;-69
2021/10/23 01:26:08;;;;;;;6.88;2.75;;;;;;;2.74;100.00;96574.13;1035494;28;20034;-69
2021/10/23 01:26:38;;;;;;;6.03;2.30;;;;;;;2.73;100.00;96569.94;1027224;28;20026;-70
2021/10/23 01:27:09;;;;;;;5.55;1.98;;;;;;;2.72;100.00;96573.53;1027558;28;20215;-69
2021/10/23 01:27:40;;;;;;;6.03;2.15;;;;;;;2.71;100.00;96574.50;1030437;28;20030;-68
2021/10/23 01:28:10;;;;;;;8.70;2.80;;;;;;;2.72;100.00;96571.75;1026804;28;20534;-70
2021/10/23 01:28:40;;;;;;;7.15;2.85;;;;;;;2.68;100.00;96572.31;1027256;28;20034;-70
2021/10/23 01:29:12;;;;;;;6.20;2.58;;;;;;;2.73;100.00;96572.53;1023409;28;20505;-70
2021/10/23 01:29:42;;;;;;;5.86;2.04;;;;;;;2.73;100.00;96570.75;1023395;28;20027;-70
2021/10/23 01:30:13;;;;;;;9.00;3.10;;;;;;;2.73;100.00;96564.78;1031186;28;20034;-70
2021/10/23 01:30:43;;;;;;;5.25;2.20;;;;;;;2.73;100.00;96570.75;1027264;28;20157;-69
2021/10/23 01:31:14;;;;;;;9.02;2.20;;;;;;;2.74;100.00;96579.31;1031586;28;20033;-69
2021/10/23 01:31:44;;;;;;;7.57;2.58;;;;;;;2.73;100.00;96578.53;1030922;28;20123;-69
2021/10/23 01:32:14;;;;;;;9.23;3.17;;;;;;;2.73;100.00;96569.94;1031167;28;20034;-70
2021/10/23 01:32:45;;;;;;;6.32;2.47;;;;;;;2.78;100.00;96572.75;1031259;28;20030;-70
2021/10/23 01:33:15;;;;;;;4.95;2.20;;;;;;;2.77;100.00;96581.53;1033184;28;20034;-70
2021/10/23 01:33:46;;;;;;;6.40;2.45;;;;;;;2.76;100.00;96574.75;1030975;28;20034;-69
2021/10/23 01:34:16;;;;;;;6.03;2.50;;;;;;;2.78;100.00;96578.75;1031291;28;20022;-71
2021/10/23 01:34:47;;;;;;;8.70;2.50;;;;;;;2.77;100.00;96574.53;1035094;28;20017;-71
2021/10/23 01:35:18;;;;;;;5.82;2.38;;;;;;;2.67;100.00;96555.97;1039166;28;20025;-67
2021/10/23 01:35:48;;;;;;;8.22;2.26;;;;;;;2.73;100.00;96568.16;1035307;28;20026;-69
2021/10/23 01:36:19;;;;;;;8.35;3.30;;;;;;;2.80;100.00;96576.75;1022940;29;20554;-70
2021/10/23 01:36:51;;;;;;;6.88;2.65;;;;;;;2.70;100.00;96560.75;1023255;29;20560;-69
2021/10/23 01:37:33;;;;;;;4.36;2.54;;;;;;;2.81;100.00;96578.34;1023053;29;20035;-70
2021/10/23 01:38:03;;;;;;;4.94;2.10;;;;;;;2.80;100.00;96575.97;1026052;28;20027;-69
2021/10/23 01:38:34;;;;;;;6.47;2.50;;;;;;;2.76;100.00;96566.97;1034622;28;20136;-69
2021/10/23 01:39:04;;;;;;;5.35;2.17;;;;;;;2.83;100.00;96573.00;1036835;28;20030;-70
2021/10/23 01:39:35;;;;;;;7.75;2.25;;;;;;;2.82;100.00;96579.16;1027227;28;20019;-70
2021/10/23 01:40:08;;;;;;;6.70;2.45;;;;;;;2.82;100.00;96571.41;1027016;28;20037;-69
2021/10/23 01:40:38;;;;;;;5.84;2.62;;;;;;;2.83;100.00;96575.59;1027154;28;20027;-67
2021/10/23 01:41:09;;;;;;;5.45;2.08;;;;;;;2.78;100.00;96568.38;1031706;28;20093;-70
2021/10/23 01:41:40;;;;;;;7.36;2.30;;;;;;;2.80;100.00;96565.59;1026968;28;20154;-69
2021/10/23 01:42:10;;;;;;;8.55;2.40;;;;;;;2.84;100.00;96577.16;1023232;28;20462;-70
2021/10/23 01:42:41;;;;;;;6.45;1.95;;;;;;;2.81;100.00;96572.38;1022945;28;20482;-70
2021/10/23 01:43:11;;;;;;;6.18;2.40;;;;;;;2.82;100.00;96566.22;1023370;28;20441;-70
2021/10/23 01:43:42;;;;;;;5.40;2.13;;;;;;;2.80;100.00;96568.97;1031239;28;20018;-71
2021/10/23 01:44:13;;;;;;;8.65;2.25;;;;;;;2.70;100.00;96554.78;1033410;28;20085;-70
2021/10/23 01:44:43;;;;;;;7.72;2.96;;;;;;;2.80;100.00;96570.78;1024388;28;20058;-69
2021/10/23 01:45:14;;;;;;;5.43;2.05;;;;;;;2.81;100.00;96573.16;1025365;28;20026;-69
2021/10/23 01:45:44;;;;;;;6.90;2.50;;;;;;;2.83;100.00;96573.78;1026875;28;20037;-70
2021/10/23 01:46:15;;;;;;;5.20;2.15;;;;;;;2.84;100.00;96571.97;1026966;28;20741;-69
2021/10/23 01:46:45;;;;;;;6.03;2.65;;;;;;;2.84;100.00;96571.97;1034923;28;20200;-70
2021/10/23 01:47:16;;;;;;;8.00;2.42;;;;;;;2.85;100.00;96568.44;1034687;28;20018;-69
2021/10/23 01:47:46;;;;;;;11.07;2.70;;;;;;;2.83;100.00;96568.59;1034322;28;20018;-68
2021/10/23 01:48:16;;;;;;;4.60;2.33;;;;;;;2.88;100.00;96573.19;1025598;28;20018;-69
2021/10/23 01:48:47;;;;;;;4.78;2.38;;;;;;;2.85;100.00;96568.44;1022736;28;20626;-69
2021/10/23 01:49:17;;;;;;;5.72;2.25;;;;;;;2.84;100.00;96569.41;1022888;29;20371;-69
2021/10/23 01:49:48;;;;;;;5.50;2.33;;;;;;;2.88;100.00;96567.22;1026732;28;20772;-69
2021/10/23 01:50:22;;;;;;;6.70;2.05;;;;;;;2.83;100.00;96565.22;1026825;28;20676;-68
2021/10/23 01:50:53;;;;;;;7.04;2.86;;;;;;;2.78;100.00;96555.44;1026709;28;20030;-69
2021/10/23 01:51:23;;;;;;;9.35;3.13;;;;;;;2.88;100.00;96568.00;1022569;29;20640;-69
2021/10/23 01:51:54;;;;;;;7.43;3.05;;;;;;;2.87;100.00;96561.22;1024187;28;20023;-69
2021/10/23 01:52:24;;;;;;;8.43;2.53;;;;;;;2.85;100.00;96563.25;1023140;28;20035;-70
2021/10/23 01:52:55;;;;;;;4.22;2.25;;;;;;;2.88;100.00;96568.00;1022922;28;20017;-70
2021/10/23 01:53:26;;;;;;;6.35;2.35;;;;;;;2.87;100.00;96569.00;1026731;28;20065;-70
2021/10/23 01:53:56;;;;;;;8.55;2.75;;;;;;;2.89;100.00;96568.84;1026771;28;20023;-70
2021/10/23 01:54:27;;;;;;;14.38;2.95;;;;;;;2.90;100.00;96573.81;1035072;28;20025;-70
2021/10/23 01:54:57;;;;;;;11.27;2.80;;;;;;;2.92;100.00;96568.41;1039099;28;20097;-69
2021/10/23 01:55:27;;;;;;;8.55;2.25;;;;;;;2.90;100.00;96566.03;1038802;28;20044;-70
2021/10/23 01:56:00;;;;;;;9.15;2.28;;;;;;;2.87;100.00;96555.25;1042963;28;20067;-70
2021/10/23 01:56:35;;;;;;;9.54;1.98;;;;;;;2.87;100.00;96563.03;1034489;28;20029;-69
2021/10/23 01:57:06;;;;;;;9.38;2.44;;;;;;;2.72;100.00;96545.84;1026703;28;20082;-69
2021/10/23 01:57:37;;;;;;;7.93;2.45;;;;;;;2.91;100.00;96567.63;1023567;28;20102;-69
2021/10/23 01:58:08;;;;;;;7.92;2.64;;;;;;;2.92;100.00;96566.66;1025907;28;20025;-69
2021/10/23 01:58:39;;;;;;;5.50;2.38;;;;;;;2.95;100.00;96565.44;1030950;28;20121;-70
2021/10/23 01:59:09;;;;;;;7.95;2.97;;;;;;;2.96;100.00;96565.25;1030978;28;20890;-69
2021/10/23 01:59:40;;;;;;;6.65;2.45;;;;;;;2.93;100.00;96557.09;1022643;28;20098;-69
2021/10/23 02:00:14;;;;;;;6.00;2.75;;;;;;;2.96;100.00;96569.66;1023065;28;20031;-70
2021/10/23 02:00:45;;;;;;;10.44;3.56;;;;;;;2.94;100.00;96572.44;1026532;28;20580;-69
2021/10/23 02:01:15;;;;;;;5.78;2.22;;;;;;;2.95;100.00;96570.63;1027984;28;20022;-69
2021/10/23 02:01:45;;;;;;;5.82;2.40;;;;;;;2.95;100.00;96574.03;1035412;28;20508;-70
2021/10/23 02:02:16;;;;;;;8.70;2.78;;;;;;;2.95;100.00;96573.22;1030597;28;20523;-70
2021/10/23 02:02:46;;;;;;;5.25;2.55;;;;;;;2.97;100.00;96573.84;1022937;28;20536;-69
2021/10/23 02:03:17;;;;;;;8.73;2.13;;;;;;;2.97;100.00;96572.03;1022564;28;20597;-69
2021/10/23 02:03:47;;;;;;;6.95;2.58;;;;;;;2.98;100.00;96572.84;1022719;28;20106;-69
2021/10/23 02:04:18;;;;;;;6.38;2.65;;;;;;;2.97;100.00;96576.44;1026914;28;20042;-68
2021/10/23 02:04:48;;;;;;;7.57;2.40;;;;;;;2.96;100.00;96570.44;1030948;28;20037;-69
2021/10/23 02:05:18;;;;;;;8.50;2.80;;;;;;;2.97;100.00;96571.25;1034778;28;20028;-69
2021/10/23 02:05:49;;;;;;;8.52;2.67;;;;;;;2.95;100.00;96568.88;1030899;28;20037;-70
2021/10/23 02:06:20;;;;;;;6.38;2.72;;;;;;;2.90;100.00;96570.41;1029167;28;20022;-68
2021/10/23 02:06:50;;;;;;;6.88;2.45;;;;;;;2.98;100.00;96578.81;1026634;28;20022;-69
2021/10/23 02:07:21;;;;;;;7.90;2.50;;;;;;;2.96;100.00;96575.63;1026583;28;20038;-69
2021/10/23 02:07:51;;;;;;;5.03;2.45;;;;;;;2.88;100.00;96562.81;1024960;28;20034;-68
2021/10/23 02:08:21;;;;;;;5.72;2.33;;;;;;;2.97;100.00;96579.81;1025441;28;20432;-70
2021/10/23 02:08:52;;;;;;;4.53;2.53;;;;;;;2.99;100.00;96577.03;1021902;28;20031;-69
2021/10/23 02:09:22;;;;;;;7.05;2.38;;;;;;;2.98;100.00;96580.63;1019816;28;20023;-69
2021/10/23 02:09:53;;;;;;;6.07;2.33;;;;;;;2.96;100.00;96580.03;1028496;28;20030;-70
2021/10/23 02:10:23;;;;;;;5.20;2.35;;;;;;;2.99;100.00;96590.00;1034438;28;20021;-69
2021/10/23 02:10:54;;;;;;;5.90;2.40;;;;;;;3.00;100.00;96586.41;1030680;28;20030;-69
2021/10/23 02:11:24;;;;;;;8.35;2.58;;;;;;;3.04;100.00;96583.22;1030758;28;20038;-70
2021/10/23 02:11:54;;;;;;;8.18;2.63;;;;;;;3.02;100.00;96590.41;1038457;28;20067;-67
2021/10/23 02:12:25;;;;;;;8.85;2.58;;;;;;;3.02;100.00;96592.22;1036153;28;20498;-69
2021/10/23 02:12:55;;;;;;;6.78;2.55;;;;;;;3.03;100.00;96591.22;1034959;28;20242;-70
2021/10/23 02:13:26;;;;;;;6.50;2.25;;;;;;;2.94;100.00;96585.38;1034314;28;20038;-70
2021/10/23 02:13:56;;;;;;;4.47;2.33;;;;;;;3.00;100.00;96589.00;1034658;28;20022;-69
2021/10/23 02:14:27;;;;;;;5.72;2.42;;;;;;;3.03;100.00;96586.03;1030794;28;20018;-69
2021/10/23 02:14:57;;;;;;;11.10;2.45;;;;;;;3.04;100.00;96585.81;1030833;28;20035;-70
2021/10/23 02:15:27;;;;;;;9.82;2.38;;;;;;;3.04;100.00;96593.59;1030747;28;20038;-70
2021/10/23 02:15:58;;;;;;;5.85;2.78;;;;;;;3.04;100.00;96590.22;1026710;28;20559;-69
2021/10/23 02:16:28;;;;;;;7.35;2.45;;;;;;;3.04;100.00;96593.59;1030964;28;20131;-69
2021/10/23 02:16:59;;;;;;;10.85;3.25;;;;;;;3.06;100.00;96590.84;1032795;28;20046;-71
2021/10/23 02:17:29;;;;;;;4.20;2.10;;;;;;;3.05;100.00;96594.41;1030416;28;20042;-69
2021/10/23 02:18:00;;;;;;;6.50;2.63;;;;;;;3.04;100.00;96593.59;1029785;28;20050;-69
2021/10/23 02:18:30;;;;;;;5.47;2.70;;;;;;;3.06;100.00;96594.22;1030399;28;20026;-70
2021/10/23 02:19:01;;;;;;;5.90;2.50;;;;;;;3.05;100.00;96594.41;1026239;28;20034;-69
2021/10/23 02:19:31;;;;;;;5.07;2.30;;;;;;;3.07;100.00;96593.22;1030534;28;20066;-70
2021/10/23 02:20:04;;;;;;;6.85;2.58;;;;;;;3.03;100.00;96586.03;1026366;28;20605;-69
2021/10/23 02:20:35;;;;;;;5.72;2.32;;;;;;;3.03;100.00;96586.81;1022853;28;20525;-69
2021/10/23 02:21:07;;;;;;;5.38;2.20;;;;;;;3.10;100.00;96592.03;1030190;28;20042;-70
2021/10/23 02:21:37;;;;;;;5.64;2.16;;;;;;;3.06;100.00;96581.25;1030264;28;20058;-72
2021/10/23 02:22:07;;;;;;;6.00;2.38;;;;;;;3.08;100.00;96583.66;1034502;28;20034;-70
2021/10/23 02:22:38;;;;;;;5.57;2.15;;;;;;;2.96;100.00;96562.69;1029871;28;20532;-68
2021/10/23 02:23:09;;;;;;;6.65;2.45;;;;;;;3.18;100.00;96586.66;1030279;28;20113;-70
2021/10/23 02:23:39;;;;;;;4.43;2.10;;;;;;;3.18;100.00;96591.06;1029493;28;20281;-70
2021/10/23 02:24:10;;;;;;;6.63;2.08;;;;;;;3.20;100.00;96594.28;1029697;28;20657;-70
2021/10/23 02:24:40;;;;;;;6.22;2.40;;;;;;;3.16;100.00;96585.28;1030618;28;20022;-70